createdAt,value
2022-11-25T00:00:11.276Z,10.38
2022-11-25T00:03:03.937Z,10.44
2022-11-25T00:05:56.479Z,10.49
2022-11-25T00:08:54.744Z,10.48
2022-11-25T00:11:47.215Z,10.45
2022-11-25T00:14:39.753Z,10.29
2022-11-25T00:17:32.233Z,10.33
2022-11-25T00:20:24.717Z,10.03
2022-11-25T00:23:17.221Z,10.34
2022-11-25T00:26:12.881Z,10.14
2022-11-25T00:29:08.509Z,10.51
2022-11-25T00:32:01.195Z,10.34
2022-11-25T00:34:53.703Z,10.51
2022-11-25T00:37:46.192Z,10.27
2022-11-25T00:40:38.681Z,10.59
2022-11-25T00:43:31.137Z,10.67
2022-11-25T00:46:23.633Z,10.69
2022-11-25T00:49:16.176Z,10.59
2022-11-25T00:52:12.908Z,10.72
2022-11-25T00:55:05.830Z,10.56
2022-11-25T00:57:58.286Z,10.73
2022-11-25T01:00:50.802Z,10.23
2022-11-25T01:03:43.323Z,10.48
2022-11-25T01:06:37.752Z,10.57
2022-11-25T01:09:30.384Z,10.56
2022-11-25T01:12:22.879Z,10.64
2022-11-25T01:15:15.406Z,10.50
2022-11-25T01:18:07.904Z,10.56
2022-11-25T01:21:11.223Z,10.45
2022-11-25T01:24:06.044Z,10.53
2022-11-25T01:26:58.734Z,10.52
2022-11-25T01:29:51.222Z,10.53
2022-11-25T01:32:43.696Z,10.45
2022-11-25T01:35:37.398Z,10.24
2022-11-25T01:38:31.164Z,10.33
2022-11-25T01:41:25.714Z,10.55
2022-11-25T01:44:21.398Z,10.71
2022-11-25T01:47:23.643Z,10.74
2022-11-25T01:50:21.665Z,10.78
2022-11-25T01:53:19.129Z,10.76
2022-11-25T01:56:11.722Z,10.81
2022-11-25T01:59:04.606Z,10.65
2022-11-25T02:02:00.322Z,10.45
2022-11-25T02:04:53.196Z,10.54
2022-11-25T02:07:49.839Z,10.60
2022-11-25T02:10:44.763Z,10.55
2022-11-25T02:13:38.308Z,10.61
2022-11-25T02:16:30.850Z,10.69
2022-11-25T02:19:39.131Z,10.68
2022-11-25T02:22:54.808Z,10.50
2022-11-25T02:25:47.503Z,10.60
2022-11-25T02:28:40.328Z,10.70
2022-11-25T02:31:32.922Z,10.73
2022-11-25T02:34:25.451Z,10.69
2022-11-25T02:37:21.078Z,10.39
2022-11-25T02:40:14.905Z,10.63
2022-11-25T02:43:07.475Z,10.74
2022-11-25T02:46:04.344Z,10.69
2022-11-25T02:49:14.530Z,10.74
2022-11-25T02:52:07.070Z,10.71
2022-11-25T02:54:59.566Z,10.29
2022-11-25T02:57:52.035Z,10.43
2022-11-25T03:00:45.755Z,10.48
2022-11-25T03:03:38.500Z,10.42
2022-11-25T03:06:30.999Z,10.49
2022-11-25T03:09:23.503Z,10.36
2022-11-25T03:12:15.996Z,10.31
2022-11-25T03:15:09.031Z,10.19
2022-11-25T03:18:03.117Z,10.12
2022-11-25T03:20:56.458Z,9.95
2022-11-25T03:23:49.001Z,10.11
2022-11-25T03:26:41.518Z,10.16
2022-11-25T03:29:33.998Z,10.02
2022-11-25T03:32:26.445Z,9.76
2022-11-25T03:35:18.983Z,9.81
2022-11-25T03:38:11.489Z,9.60
2022-11-25T03:41:03.982Z,9.64
2022-11-25T03:43:56.483Z,9.31
2022-11-25T03:46:48.981Z,9.57
2022-11-25T03:49:41.415Z,9.30
2022-11-25T03:52:33.874Z,9.04
2022-11-25T03:55:26.362Z,9.17
2022-11-25T03:58:18.822Z,9.32
2022-11-25T04:01:11.383Z,9.38
2022-11-25T04:04:04.564Z,9.12
2022-11-25T04:06:57.131Z,9.30
2022-11-25T04:09:49.611Z,8.90
2022-11-25T04:12:42.165Z,8.85
2022-11-25T04:15:34.740Z,8.88
2022-11-25T04:18:27.259Z,8.94
2022-11-25T04:21:19.770Z,8.68
2022-11-25T04:24:12.270Z,9.14
2022-11-25T04:27:04.760Z,9.21
2022-11-25T04:29:57.554Z,9.16
2022-11-25T04:32:50.119Z,9.29
2022-11-25T04:35:42.632Z,9.38
2022-11-25T04:38:35.308Z,9.35
2022-11-25T04:41:27.890Z,9.38
2022-11-25T04:44:20.385Z,9.41
2022-11-25T04:47:12.952Z,9.63
2022-11-25T04:50:08.900Z,9.63
2022-11-25T04:53:01.483Z,9.85
2022-11-25T04:55:53.950Z,9.84
2022-11-25T04:58:46.990Z,9.65
2022-11-25T05:01:39.536Z,10.03
2022-11-25T05:04:32.112Z,9.96
2022-11-25T05:07:28.110Z,9.90
2022-11-25T05:10:20.670Z,9.54
2022-11-25T05:13:13.137Z,9.94
2022-11-25T05:16:06.006Z,9.98
2022-11-25T05:18:58.460Z,10.10
2022-11-25T05:21:50.996Z,10.18
2022-11-25T05:24:44.499Z,10.24
2022-11-25T05:27:36.982Z,10.17
2022-11-25T05:30:29.529Z,9.87
2022-11-25T05:33:22.142Z,10.03
2022-11-25T05:36:14.620Z,10.11
2022-11-25T05:39:07.066Z,9.86
2022-11-25T05:41:59.591Z,9.88
2022-11-25T05:44:52.093Z,9.63
2022-11-25T05:47:44.600Z,9.59
2022-11-25T05:50:37.970Z,9.50
2022-11-25T05:53:31.661Z,9.63
2022-11-25T05:56:24.200Z,9.42
2022-11-25T05:59:16.717Z,9.49
2022-11-25T06:02:09.272Z,9.31
2022-11-25T06:05:01.893Z,9.27
2022-11-25T06:07:54.444Z,9.19
2022-11-25T06:10:46.984Z,9.02
2022-11-25T06:13:41.168Z,9.09
2022-11-25T06:16:33.721Z,8.87
2022-11-25T06:19:26.197Z,8.81
2022-11-25T06:22:18.695Z,8.79
2022-11-25T06:25:11.263Z,9.00
2022-11-25T06:28:12.795Z,8.89
2022-11-25T06:31:13.305Z,9.10
2022-11-25T06:34:05.892Z,9.01
2022-11-25T06:36:58.396Z,9.15
2022-11-25T06:39:51.013Z,9.17
2022-11-25T06:42:43.520Z,9.09
2022-11-25T06:45:35.979Z,8.98
2022-11-25T06:48:39.208Z,9.22
2022-11-25T06:51:30.809Z,8.74
2022-11-25T06:54:22.275Z,8.53
2022-11-25T06:57:18.590Z,9.08
2022-11-25T07:00:10.402Z,9.21
2022-11-25T07:03:01.868Z,9.50
2022-11-25T07:05:59.305Z,9.10
2022-11-25T07:08:50.938Z,9.43
2022-11-25T07:11:42.705Z,9.79
2022-11-25T07:14:34.507Z,9.96
2022-11-25T07:17:26.146Z,9.91
2022-11-25T07:20:17.633Z,10.10
2022-11-25T07:23:09.105Z,10.03
2022-11-25T07:26:15.560Z,10.20
2022-11-25T07:32:24.225Z,10.27
2022-11-25T07:35:15.675Z,10.29
2022-11-25T07:38:07.093Z,10.50
2022-11-25T07:41:09.909Z,10.17
2022-11-25T07:44:04.872Z,10.48
2022-11-25T07:46:56.337Z,10.71
2022-11-25T07:49:47.743Z,10.58
2022-11-25T07:52:40.339Z,10.76
2022-11-25T07:55:31.862Z,10.67
2022-11-25T07:58:23.242Z,10.77
2022-11-25T08:01:16.661Z,10.97
2022-11-25T08:04:11.886Z,10.87
2022-11-25T08:07:06.467Z,11.11
2022-11-25T08:09:57.867Z,10.73
2022-11-25T08:12:49.473Z,10.87
2022-11-25T08:15:40.900Z,11.16
2022-11-25T08:18:33.404Z,11.13
2022-11-25T08:21:24.893Z,10.82
2022-11-25T08:24:18.813Z,10.88
2022-11-25T08:27:10.199Z,11.43
2022-11-25T08:30:01.860Z,11.38
2022-11-25T08:32:53.667Z,11.53
2022-11-25T08:35:53.385Z,11.58
2022-11-25T08:38:47.821Z,11.38
2022-11-25T08:41:39.482Z,11.66
2022-11-25T08:44:31.100Z,11.62
2022-11-25T08:47:23.775Z,11.55
2022-11-25T08:50:15.719Z,11.42
2022-11-25T08:53:07.090Z,11.54
2022-11-25T08:55:58.474Z,11.69
2022-11-25T08:58:50.366Z,11.44
2022-11-25T09:01:41.823Z,11.55
2022-11-25T09:04:33.462Z,11.27
2022-11-25T09:07:30.572Z,11.41
2022-11-25T09:10:22.396Z,10.94
2022-11-25T09:13:13.976Z,11.12
2022-11-25T09:16:06.162Z,11.06
2022-11-25T09:18:57.588Z,10.35
2022-11-25T09:21:49.304Z,10.65
2022-11-25T09:24:40.827Z,10.73
2022-11-25T09:27:32.601Z,10.84
2022-11-25T09:30:25.182Z,11.49
2022-11-25T09:33:17.618Z,11.73
2022-11-25T09:36:11.285Z,11.31
2022-11-25T09:39:03.115Z,13.82
2022-11-25T09:42:10.445Z,15.50
2022-11-25T09:45:34.071Z,19.39
2022-11-25T09:48:44.103Z,21.42
2022-11-25T09:52:07.199Z,21.78
2022-11-25T09:55:25.260Z,23.20
2022-11-25T09:58:35.429Z,23.81
2022-11-25T10:04:47.104Z,17.12
2022-11-25T10:07:46.194Z,16.79
2022-11-25T10:10:47.437Z,17.92
2022-11-25T10:14:17.283Z,17.59
2022-11-25T10:17:29.174Z,21.40
2022-11-25T10:20:22.343Z,21.81
2022-11-25T10:23:35.547Z,21.82
2022-11-25T10:26:41.702Z,19.62
2022-11-25T10:29:38.399Z,17.62
2022-11-25T10:32:40.949Z,15.92
2022-11-25T10:35:57.934Z,15.57
2022-11-25T10:39:02.603Z,16.00
2022-11-25T10:42:00.136Z,14.94
2022-11-25T10:44:51.963Z,14.37
2022-11-25T10:48:23.132Z,14.55
2022-11-25T10:51:35.385Z,14.79
2022-11-25T10:54:28.805Z,13.25
2022-11-25T10:57:21.231Z,14.14
2022-11-25T11:00:33.235Z,14.18
2022-11-25T11:03:26.819Z,13.21
2022-11-25T11:06:49.300Z,13.52
2022-11-25T11:09:40.725Z,12.84
2022-11-25T11:12:32.142Z,13.30
2022-11-25T11:15:25.821Z,12.69
2022-11-25T11:18:30.369Z,12.59
2022-11-25T11:21:34.240Z,12.86
2022-11-25T11:24:30.324Z,12.88
2022-11-25T11:27:24.835Z,13.08
2022-11-25T11:30:29.800Z,13.02
2022-11-25T11:33:30.268Z,13.29
2022-11-25T11:36:55.722Z,12.51
2022-11-25T11:40:12.446Z,12.37
2022-11-25T11:43:15.983Z,12.38
2022-11-25T11:46:28.801Z,12.34
2022-11-25T11:49:44.108Z,12.38
2022-11-25T11:52:44.550Z,12.47
2022-11-25T11:55:45.149Z,12.89
2022-11-25T11:59:08.792Z,12.98
2022-11-25T12:02:15.385Z,12.41
2022-11-25T12:05:09.807Z,11.91
2022-11-25T12:08:33.868Z,12.23
2022-11-25T12:11:49.488Z,12.65
2022-11-25T12:14:47.653Z,11.79
2022-11-25T12:17:48.605Z,12.19
2022-11-25T12:20:55.644Z,11.79
2022-11-25T12:24:05.656Z,12.25
2022-11-25T12:27:23.437Z,11.91
2022-11-25T12:30:33.975Z,12.61
2022-11-25T12:33:38.449Z,13.11
2022-11-25T12:36:43.693Z,12.78
2022-11-25T12:39:48.497Z,12.88
2022-11-25T12:42:43.802Z,12.66
2022-11-25T12:45:35.738Z,12.52
2022-11-25T12:48:27.255Z,12.61
2022-11-25T12:51:44.465Z,12.71
2022-11-25T12:55:05.170Z,12.45
2022-11-25T12:58:11.864Z,11.88
2022-11-25T13:01:21.311Z,11.99
2022-11-25T13:04:54.225Z,12.12
2022-11-25T13:08:11.745Z,12.69
2022-11-25T13:11:35.112Z,13.03
2022-11-25T13:14:27.164Z,13.48
2022-11-25T13:17:20.277Z,12.36
2022-11-25T13:20:27.375Z,12.65
2022-11-25T13:23:18.724Z,12.68
2022-11-25T13:26:28.436Z,12.66
2022-11-25T13:29:19.770Z,13.61
2022-11-25T13:32:31.431Z,13.84
2022-11-25T13:35:22.832Z,13.71
2022-11-25T13:38:49.750Z,13.40
2022-11-25T13:41:48.517Z,13.00
2022-11-25T13:44:55.880Z,13.89
2022-11-25T13:47:49.480Z,14.14
2022-11-25T13:51:09.598Z,14.22
2022-11-25T13:53:57.628Z,14.23
2022-11-25T13:57:14.653Z,14.41
2022-11-25T14:00:29.921Z,14.42
2022-11-25T14:03:41.264Z,14.19
2022-11-25T14:06:56.979Z,14.50
2022-11-25T14:10:30.531Z,13.74
2022-11-25T14:13:49.709Z,12.95
2022-11-25T14:16:44.165Z,13.36
2022-11-25T14:19:54.002Z,13.26
2022-11-25T14:23:22.713Z,13.58
2022-11-25T14:26:48.191Z,13.31
2022-11-25T14:30:03.849Z,13.44
2022-11-25T14:33:09.604Z,13.35
2022-11-25T14:36:09.165Z,13.52
2022-11-25T14:39:17.858Z,12.72
2022-11-25T14:42:19.361Z,12.87
2022-11-25T14:45:26.158Z,13.19
2022-11-25T14:48:20.536Z,13.21
2022-11-25T14:51:13.677Z,13.02
2022-11-25T14:54:09.412Z,13.35
2022-11-25T14:57:00.836Z,12.90
2022-11-25T14:59:56.194Z,12.96
2022-11-25T15:02:58.582Z,13.44
2022-11-25T15:06:12.668Z,13.30
2022-11-25T15:09:20.449Z,13.14
2022-11-25T15:12:17.891Z,13.08
2022-11-25T15:15:15.329Z,12.47
2022-11-25T15:18:16.946Z,13.10
2022-11-25T15:21:15.883Z,13.20
2022-11-25T15:24:29.677Z,13.14
2022-11-25T15:27:24.941Z,12.91
2022-11-25T15:30:25.599Z,12.38
2022-11-25T15:33:17.149Z,12.74
2022-11-25T15:36:09.097Z,12.96
2022-11-25T15:39:33.043Z,12.89
2022-11-25T15:42:27.984Z,12.53
2022-11-25T15:45:21.715Z,12.47
2022-11-25T15:48:26.336Z,12.64
2022-11-25T15:51:47.032Z,12.72
2022-11-25T15:54:46.042Z,12.21
2022-11-25T15:57:38.545Z,12.32
2022-11-25T16:00:30.068Z,12.38
2022-11-25T16:03:22.226Z,12.21
2022-11-25T16:06:29.942Z,12.26
2022-11-25T16:09:23.856Z,12.22
2022-11-25T16:12:17.410Z,12.20
2022-11-25T16:15:18.296Z,12.07
2022-11-25T16:18:38.710Z,12.18
2022-11-25T16:21:29.958Z,12.09
2022-11-25T16:24:36.632Z,12.30
2022-11-25T16:27:29.376Z,12.12
2022-11-25T16:30:20.945Z,11.99
2022-11-25T16:33:12.338Z,11.99
2022-11-25T16:36:08.231Z,11.76
2022-11-25T16:39:00.926Z,11.15
2022-11-25T16:41:58.466Z,11.57
2022-11-25T16:44:52.280Z,11.74
2022-11-25T16:47:43.665Z,12.02
2022-11-25T16:50:35.102Z,11.75
2022-11-25T16:53:26.574Z,11.84
2022-11-25T16:56:27.866Z,11.91
2022-11-25T16:59:25.146Z,12.00
2022-11-25T17:02:20.019Z,11.86
2022-11-25T17:05:20.319Z,11.98
2022-11-25T17:08:12.179Z,11.64
2022-11-25T17:11:03.810Z,11.65
2022-11-25T17:13:58.843Z,11.38
2022-11-25T17:16:50.757Z,11.62
2022-11-25T17:19:42.193Z,11.45
2022-11-25T17:22:38.932Z,11.04
2022-11-25T17:25:37.030Z,11.25
2022-11-25T17:28:28.950Z,11.27
2022-11-25T17:31:24.795Z,11.23
2022-11-25T17:34:17.791Z,10.91
2022-11-25T17:37:20.775Z,10.88
2022-11-25T17:40:23.565Z,10.72
2022-11-25T17:43:18.402Z,10.38
2022-11-25T17:46:14.942Z,10.94
2022-11-25T17:49:14.544Z,11.07
2022-11-25T17:52:07.155Z,10.97
2022-11-25T17:54:58.578Z,10.92
2022-11-25T17:57:50.443Z,10.58
2022-11-25T18:00:43.329Z,10.32
2022-11-25T18:03:35.338Z,10.31
2022-11-25T18:06:26.718Z,10.01
2022-11-25T18:09:19.032Z,10.15
2022-11-25T18:12:21.927Z,10.05
2022-11-25T18:15:19.875Z,10.05
2022-11-25T18:18:23.205Z,10.17
2022-11-25T18:21:14.576Z,10.39
2022-11-25T18:24:06.220Z,10.36
2022-11-25T18:26:57.776Z,10.54
2022-11-25T18:29:50.102Z,10.51
2022-11-25T18:32:41.623Z,10.41
2022-11-25T18:35:36.552Z,10.41
2022-11-25T18:38:28.449Z,10.38
2022-11-25T18:41:21.777Z,9.66
2022-11-25T18:44:26.320Z,10.15
2022-11-25T18:47:17.941Z,10.44
2022-11-25T18:50:21.356Z,10.55
2022-11-25T18:53:13.782Z,10.40
2022-11-25T18:56:05.436Z,10.53
2022-11-25T18:58:57.351Z,10.31
2022-11-25T19:01:50.081Z,9.95
2022-11-25T19:04:41.884Z,9.10
2022-11-25T19:07:33.304Z,9.64
2022-11-25T19:10:29.665Z,9.08
2022-11-25T19:13:30.920Z,9.22
2022-11-25T19:16:23.857Z,9.75
2022-11-25T19:19:17.003Z,9.20
2022-11-25T19:22:13.345Z,9.16
2022-11-25T19:25:05.039Z,9.48
2022-11-25T19:28:00.278Z,9.11
2022-11-25T19:30:58.195Z,9.22
2022-11-25T19:33:51.401Z,8.97
2022-11-25T19:36:42.895Z,9.53
2022-11-25T19:39:36.450Z,9.25
2022-11-25T19:42:27.948Z,8.93
2022-11-25T19:45:20.607Z,9.23
2022-11-25T19:48:18.370Z,9.57
2022-11-25T19:51:10.421Z,9.56
2022-11-25T19:54:01.819Z,9.61
2022-11-25T19:56:53.197Z,8.94
2022-11-25T19:59:45.306Z,9.03
2022-11-25T20:02:37.180Z,9.11
2022-11-25T20:05:36.334Z,9.22
2022-11-25T20:08:29.005Z,9.22
2022-11-25T20:11:20.423Z,9.25
2022-11-25T20:14:11.840Z,9.14
2022-11-25T20:17:03.390Z,9.16
2022-11-25T20:20:07.581Z,9.41
2022-11-25T20:23:08.037Z,9.57
2022-11-25T20:25:59.417Z,9.12
2022-11-25T20:28:50.840Z,9.32
2022-11-25T20:31:42.281Z,9.26
2022-11-25T20:34:38.831Z,8.74
2022-11-25T20:37:33.392Z,8.82
2022-11-25T20:40:30.063Z,8.63
2022-11-25T20:43:29.282Z,9.00
2022-11-25T20:46:23.543Z,8.65
2022-11-25T20:49:26.324Z,8.49
2022-11-25T20:52:30.720Z,8.45
2022-11-25T20:55:24.958Z,9.19
2022-11-25T20:58:28.995Z,8.99
2022-11-25T21:01:20.839Z,9.14
2022-11-25T21:04:12.296Z,8.89
2022-11-25T21:07:04.925Z,8.87
2022-11-25T21:09:56.450Z,8.52
2022-11-25T21:12:49.036Z,9.07
2022-11-25T21:15:40.500Z,9.26
2022-11-25T21:18:32.013Z,8.95
2022-11-25T21:21:34.212Z,9.05
2022-11-25T21:24:32.753Z,8.72
2022-11-25T21:27:25.965Z,8.76
2022-11-25T21:30:24.249Z,8.89
2022-11-25T21:33:15.889Z,8.80
2022-11-25T21:36:15.340Z,8.98
2022-11-25T21:39:16.646Z,8.92
2022-11-25T21:42:18.752Z,8.95
2022-11-25T21:45:17.031Z,8.88
2022-11-25T21:48:28.719Z,8.73
2022-11-25T21:51:20.663Z,8.63
2022-11-25T21:54:12.071Z,8.52
2022-11-25T21:57:03.734Z,8.45
2022-11-25T21:59:55.832Z,8.55
2022-11-25T22:02:47.493Z,9.01
2022-11-25T22:05:38.949Z,8.78
2022-11-25T22:08:30.376Z,8.67
2022-11-25T22:11:30.047Z,8.97
2022-11-25T22:14:29.485Z,8.66
2022-11-25T22:17:21.369Z,8.62
2022-11-25T22:20:29.117Z,8.57
2022-11-25T22:23:21.489Z,8.31
2022-11-25T22:26:25.124Z,8.39
2022-11-25T22:29:21.324Z,8.53
2022-11-25T22:32:15.322Z,8.50
2022-11-25T22:35:19.030Z,8.54
2022-11-25T22:38:18.571Z,8.47
2022-11-25T22:41:10.816Z,8.35
2022-11-25T22:44:02.559Z,8.24
2022-11-25T22:46:54.539Z,8.03
2022-11-25T22:49:47.993Z,8.16
2022-11-25T22:52:39.661Z,8.25
2022-11-25T22:55:33.112Z,8.16
2022-11-25T22:58:28.411Z,8.08
2022-11-25T23:01:20.313Z,7.85
2022-11-25T23:04:18.783Z,8.16
2022-11-25T23:07:12.498Z,8.35
2022-11-25T23:10:13.354Z,7.94
2022-11-25T23:13:04.734Z,7.71
2022-11-25T23:15:58.775Z,7.89
2022-11-25T23:18:50.185Z,8.00
2022-11-25T23:21:42.013Z,8.10
2022-11-25T23:24:33.531Z,8.03
2022-11-25T23:27:24.976Z,7.68
2022-11-25T23:30:22.941Z,7.80
2022-11-25T23:33:39.643Z,8.14
2022-11-25T23:36:42.823Z,8.21
2022-11-25T23:39:34.331Z,8.33
2022-11-25T23:42:25.839Z,8.06
2022-11-25T23:45:20.904Z,7.82
2022-11-25T23:48:12.584Z,8.02
2022-11-25T23:51:04.132Z,7.83
2022-11-25T23:53:57.455Z,7.96
2022-11-25T23:56:48.922Z,7.77
2022-11-25T23:59:40.337Z,7.50
